Main page
METAR-TAF:

METAR-TAF

Airports :

Gloucestershire Airport

Gloucester, England

latitude: 51-54N, longitude: 002-10W, elevation: 29 m

Current weather observation

The report was made 12 hours and 59 minutes ago, at 18:50 UTC
Wind 8 kt from the Southwest
Temperature 17°C
Humidity 63%
Pressure 1004 hPa
Visibility 10 km or more
Few clouds at a height of 4500 ft

METAR: EGBJ 171850Z 23008KT 9999 FEW045 17/10 Q1004

Time: 08:49 (07:49 UTC)

Forecast

The report was made 17 hours and 45 minutes ago, at 14:04 UTC
Forecast valid from 17 at 15 UTC to 17 at 19 UTC
Wind 13 kt from the West/Southwest
Visibility 10 km or more
Few clouds at a height of 3500 ft
Probability 30% :
Temporary
from 17 at 15 UTC to 17 at 17 UTC
Wind 16 kt from the West/Southwest with gusts up to 26 kt

TAF: EGBJ 171404Z 1715/1719 24013KT 9999 FEW035 PROB30 TEMPO 1715/1717 25016G26KT

Weather observations and forecasts of more than 4000 airports (METAR and TAF reports).

The available stations are represented by yellow and red dots on the map.

Hover mouse over dot to see the name of the station.

Then click to see weather observations and forecasts.

To change the map : click on the green buttons with a black cross to zoom in, on the green button with a dash to zoom out, or on the green arrows for adjacent maps.


METAR-TAF: